Fort Steilacoom, Washington
Current Conditions -  °F | °C
As of 1:58 AM on Sunday 23 Nov 2014 (Local Time) from KGRF Reporting Station
Drizzle Drizzle  
Wind Chill: 41°   Ceiling: 2700
Heat Index: 46°   Visibility: 10mi
Dew Point: 45°   Wind: 9mph
Humidity: 99%   Direction: 170°S
Pressure: 30.18"   Gusts: NA
Location:  47.1451°N, 122.578°W
Report Text: KGRF 230958Z AUTO 17008KT 10SM DZ BKN027 OVC110 08/07 A3018 RMK AO2 RAE0901DZB0901 CIG 027V110 BKN V SCT SLP225 P0001 T00750073 $
Loading
Personal Weather Stations






























Interactive Weather Map New forecast layout! Learn more

10-Day Weather Forecast

Advertisements
Track Severe Weather on mobile